createdAt,value
2023-02-22T00:00:50.168Z,100521.53
2023-02-22T00:03:28.199Z,100519.50
2023-02-22T00:06:06.111Z,100519.63
2023-02-22T00:08:40.661Z,100519.19
2023-02-22T00:11:15.366Z,100524.69
2023-02-22T00:13:50.699Z,100515.78
2023-02-22T00:16:26.880Z,100511.78
2023-02-22T00:19:01.503Z,100517.31
2023-02-22T00:21:37.458Z,100522.50
2023-02-22T00:24:23.407Z,100521.81
2023-02-22T00:26:57.870Z,100519.50
2023-02-22T00:29:34.472Z,100517.09
2023-02-22T00:32:08.868Z,100511.75
2023-02-22T00:34:44.299Z,100517.53
2023-02-22T00:37:20.108Z,100510.34
2023-02-22T00:39:56.446Z,100518.53
2023-02-22T00:42:31.110Z,100517.69
2023-02-22T00:45:05.838Z,100516.38
2023-02-22T00:47:42.340Z,100520.12
2023-02-22T00:50:18.599Z,100514.06
2023-02-22T00:52:54.836Z,100518.25
2023-02-22T00:55:32.027Z,100521.38
2023-02-22T00:58:07.441Z,100528.87
2023-02-22T01:00:43.874Z,100522.28
2023-02-22T01:03:20.430Z,100515.28
2023-02-22T01:05:55.157Z,100522.94
2023-02-22T01:08:31.273Z,100517.72
2023-02-22T01:11:06.197Z,100515.72
2023-02-22T01:13:40.428Z,100518.94
2023-02-22T01:16:15.390Z,100523.62
2023-02-22T01:18:49.907Z,100512.59
2023-02-22T01:21:24.524Z,100513.88
2023-02-22T01:24:00.233Z,100510.38
2023-02-22T01:26:34.891Z,100510.84
2023-02-22T01:29:10.116Z,100509.94
2023-02-22T01:31:51.972Z,100509.59
2023-02-22T01:34:26.917Z,100515.44
2023-02-22T01:37:01.700Z,100505.69
2023-02-22T01:39:37.431Z,100504.81
2023-02-22T01:42:11.997Z,100508.66
2023-02-22T01:44:46.626Z,100512.97
2023-02-22T01:47:21.166Z,100510.16
2023-02-22T01:49:57.023Z,100502.88
2023-02-22T01:52:31.607Z,100506.03
2023-02-22T01:55:07.880Z,100512.03
2023-02-22T01:57:42.480Z,100512.28
2023-02-22T02:00:20.651Z,100512.88
2023-02-22T02:02:59.063Z,100511.34
2023-02-22T02:05:35.495Z,100513.94
2023-02-22T02:08:18.350Z,100512.88
2023-02-22T02:10:56.047Z,100507.34
2023-02-22T02:13:30.708Z,100518.87
2023-02-22T02:16:05.811Z,100507.25
2023-02-22T02:18:40.371Z,100505.22
2023-02-22T02:21:49.949Z,100511.28
2023-02-22T02:25:09.363Z,100510.06
2023-02-22T02:28:05.069Z,100501.87
2023-02-22T02:31:07.924Z,100497.75
2023-02-22T02:33:48.490Z,100494.94
2023-02-22T02:36:31.052Z,100492.72
2023-02-22T02:39:12.583Z,100492.56
2023-02-22T02:41:51.820Z,100488.63
2023-02-22T02:44:33.171Z,100481.63
2023-02-22T02:47:13.232Z,100492.41
2023-02-22T02:49:56.220Z,100492.91
2023-02-22T02:52:34.304Z,100487.03
2023-02-22T02:55:12.498Z,100490.19
2023-02-22T02:57:48.637Z,100491.78
2023-02-22T03:00:28.212Z,100491.50
2023-02-22T03:03:16.969Z,100486.50
2023-02-22T03:06:23.480Z,100492.66
2023-02-22T03:09:04.780Z,100489.91
2023-02-22T03:11:48.730Z,100490.06
2023-02-22T03:14:28.434Z,100488.53
2023-02-22T03:17:12.389Z,100486.00
2023-02-22T03:19:52.093Z,100484.03
2023-02-22T03:22:32.974Z,100489.06
2023-02-22T03:25:11.843Z,100499.66
2023-02-22T03:27:50.792Z,100491.66
2023-02-22T03:30:32.825Z,100490.88
2023-02-22T03:33:12.888Z,100501.34
2023-02-22T03:35:56.949Z,100501.47
2023-02-22T03:38:37.828Z,100498.41
2023-02-22T03:41:18.015Z,100498.16
2023-02-22T03:43:59.803Z,100501.41
2023-02-22T03:46:36.253Z,100507.16
2023-02-22T03:49:20.255Z,100498.88
2023-02-22T03:51:55.160Z,100507.50
2023-02-22T03:54:31.493Z,100514.63
2023-02-22T03:57:11.219Z,100516.03
2023-02-22T03:59:47.408Z,100512.88
2023-02-22T04:02:23.904Z,100515.56
2023-02-22T04:04:58.821Z,100521.44
2023-02-22T04:07:33.058Z,100524.16
2023-02-22T04:10:11.143Z,100520.12
2023-02-22T04:12:51.830Z,100521.97
2023-02-22T04:15:26.749Z,100525.94
2023-02-22T04:18:02.017Z,100524.34
2023-02-22T04:20:38.320Z,100522.63
2023-02-22T04:23:15.183Z,100524.78
2023-02-22T04:25:51.775Z,100533.59
2023-02-22T04:28:26.423Z,100530.81
2023-02-22T04:31:01.489Z,100528.09
2023-02-22T04:33:36.638Z,100526.81
2023-02-22T04:36:13.593Z,100531.22
2023-02-22T04:38:48.854Z,100524.00
2023-02-22T04:41:25.668Z,100528.56
2023-02-22T04:44:00.277Z,100522.66
2023-02-22T04:46:34.957Z,100529.88
2023-02-22T04:49:09.527Z,100520.97
2023-02-22T04:51:44.739Z,100529.41
2023-02-22T04:54:19.292Z,100536.81
2023-02-22T04:56:55.469Z,100519.88
2023-02-22T04:59:30.209Z,100524.56
2023-02-22T05:02:06.372Z,100530.81
2023-02-22T05:04:40.675Z,100537.12
2023-02-22T05:07:15.241Z,100531.63
2023-02-22T05:09:49.497Z,100535.69
2023-02-22T05:12:28.409Z,100537.47
2023-02-22T05:15:02.686Z,100537.69
2023-02-22T05:17:38.021Z,100539.97
2023-02-22T05:20:23.043Z,100539.50
2023-02-22T05:22:58.395Z,100541.72
2023-02-22T05:25:33.844Z,100535.25
2023-02-22T05:28:14.829Z,100546.72
2023-02-22T05:30:49.094Z,100544.06
2023-02-22T05:33:23.583Z,100554.38
2023-02-22T05:35:57.963Z,100552.78
2023-02-22T05:38:33.105Z,100555.22
2023-02-22T05:41:08.273Z,100539.63
2023-02-22T05:43:44.327Z,100549.34
2023-02-22T05:46:18.611Z,100549.63
2023-02-22T05:48:53.544Z,100544.72
2023-02-22T05:51:27.958Z,100543.88
2023-02-22T05:54:02.600Z,100555.59
2023-02-22T05:56:37.041Z,100554.31
2023-02-22T05:59:13.229Z,100562.41
2023-02-22T06:01:47.561Z,100573.03
2023-02-22T06:04:22.269Z,100571.34
2023-02-22T06:06:58.784Z,100577.41
2023-02-22T06:09:33.333Z,100581.16
2023-02-22T06:12:08.101Z,100585.87
2023-02-22T06:14:46.143Z,100579.66
2023-02-22T06:17:20.675Z,100580.19
2023-02-22T06:19:56.886Z,100585.00
2023-02-22T06:22:31.456Z,100578.94
2023-02-22T06:25:07.075Z,100587.59
2023-02-22T06:27:41.679Z,100584.56
2023-02-22T06:30:20.929Z,100581.34
2023-02-22T06:32:55.672Z,100579.34
2023-02-22T06:35:30.338Z,100587.25
2023-02-22T06:38:04.708Z,100595.31
2023-02-22T06:40:39.383Z,100593.97
2023-02-22T06:43:13.666Z,100607.81
2023-02-22T06:45:49.722Z,100609.06
2023-02-22T06:48:24.017Z,100605.44
2023-02-22T06:50:58.893Z,100610.22
2023-02-22T06:53:33.806Z,100606.22
2023-02-22T06:56:08.470Z,100601.53
2023-02-22T06:58:43.025Z,100606.22
2023-02-22T07:03:20.198Z,100607.72
2023-02-22T07:05:55.546Z,100607.72
2023-02-22T07:08:30.232Z,100606.81
2023-02-22T07:11:05.624Z,100616.66
2023-02-22T07:13:40.809Z,100623.16
2023-02-22T07:16:15.391Z,100625.94
2023-02-22T07:18:50.972Z,100629.94
2023-02-22T07:21:26.051Z,100624.56
2023-02-22T07:24:00.398Z,100611.75
2023-02-22T07:26:40.984Z,100607.00
2023-02-22T07:29:15.388Z,100617.66
2023-02-22T07:31:50.502Z,100613.84
2023-02-22T07:34:26.347Z,100630.59
2023-02-22T07:37:00.898Z,100612.81
2023-02-22T07:39:35.430Z,100612.16
2023-02-22T07:42:10.039Z,100619.44
2023-02-22T07:44:44.535Z,100618.62
2023-02-22T07:47:20.803Z,100611.09
2023-02-22T07:49:56.676Z,100613.78
2023-02-22T07:52:31.170Z,100604.31
2023-02-22T07:55:07.206Z,100610.03
2023-02-22T07:57:41.952Z,100609.97
2023-02-22T08:00:18.920Z,100611.28
2023-02-22T08:02:54.221Z,100621.91
2023-02-22T08:05:31.392Z,100618.78
2023-02-22T08:08:07.255Z,100616.91
2023-02-22T08:10:41.811Z,100607.81
2023-02-22T08:13:16.855Z,100602.31
2023-02-22T08:15:53.231Z,100608.91
2023-02-22T08:18:28.042Z,100602.09
2023-02-22T08:21:03.606Z,100605.72
2023-02-22T08:23:38.962Z,100599.25
2023-02-22T08:26:18.593Z,100611.00
2023-02-22T08:28:53.121Z,100602.44
2023-02-22T08:31:28.094Z,100604.62
2023-02-22T08:34:02.884Z,100597.59
2023-02-22T08:36:43.382Z,100602.09
2023-02-22T08:39:17.702Z,100595.28
2023-02-22T08:41:52.150Z,100592.97
2023-02-22T08:44:26.703Z,100602.16
2023-02-22T08:47:00.921Z,100602.13
2023-02-22T08:49:35.684Z,100603.41
2023-02-22T08:52:11.659Z,100605.91
2023-02-22T08:54:47.047Z,100604.19
2023-02-22T08:57:21.804Z,100592.47
2023-02-22T08:59:56.495Z,100603.97
2023-02-22T09:02:30.721Z,100589.53
2023-02-22T09:05:05.917Z,100599.75
2023-02-22T09:07:44.195Z,100587.88
2023-02-22T09:10:24.533Z,100599.16
2023-02-22T09:13:01.058Z,100595.63
2023-02-22T09:15:37.316Z,100592.34
2023-02-22T09:18:14.731Z,100587.44
2023-02-22T09:20:49.554Z,100595.34
2023-02-22T09:23:27.925Z,100582.94
2023-02-22T09:26:02.705Z,100581.62
2023-02-22T09:28:37.332Z,100584.88
2023-02-22T09:31:11.879Z,100579.59
2023-02-22T09:33:47.492Z,100585.16
2023-02-22T09:36:22.656Z,100579.09
2023-02-22T09:38:59.507Z,100584.00
2023-02-22T09:41:41.242Z,100574.38
2023-02-22T09:44:24.104Z,100579.16
2023-02-22T09:46:59.835Z,100573.22
2023-02-22T09:49:39.096Z,100572.47
2023-02-22T09:52:19.891Z,100580.88
2023-02-22T09:55:04.892Z,100574.00
2023-02-22T09:57:43.470Z,100582.72
2023-02-22T10:00:21.227Z,100584.88
2023-02-22T10:03:08.305Z,100570.88
2023-02-22T10:05:47.104Z,100581.91
2023-02-22T10:08:22.202Z,100570.28
2023-02-22T10:11:07.542Z,100571.84
2023-02-22T10:13:51.342Z,100569.66
2023-02-22T10:16:35.774Z,100570.88
2023-02-22T10:19:24.111Z,100571.97
2023-02-22T10:22:11.590Z,100566.28
2023-02-22T10:24:57.427Z,100564.75
2023-02-22T10:27:35.399Z,100554.19
2023-02-22T10:30:27.867Z,100556.91
2023-02-22T10:33:09.777Z,100546.81
2023-02-22T10:35:54.204Z,100549.41
2023-02-22T10:38:31.015Z,100549.72
2023-02-22T10:41:25.149Z,100555.41
2023-02-22T10:44:02.935Z,100544.31
2023-02-22T10:46:40.028Z,100536.56
2023-02-22T10:49:21.738Z,100548.22
2023-02-22T10:52:02.234Z,100548.97
2023-02-22T10:54:41.328Z,100546.34
2023-02-22T10:57:21.228Z,100541.34
2023-02-22T10:59:57.909Z,100542.53
2023-02-22T11:02:36.972Z,100534.31
2023-02-22T11:05:29.545Z,100531.09
2023-02-22T11:08:16.935Z,100531.28
2023-02-22T11:10:53.309Z,100533.09
2023-02-22T11:13:31.659Z,100528.22
2023-02-22T11:16:20.256Z,100516.59
2023-02-22T11:19:02.994Z,100521.78
2023-02-22T11:21:37.956Z,100521.47
2023-02-22T11:24:15.506Z,100516.75
2023-02-22T11:26:52.133Z,100508.59
2023-02-22T11:29:28.980Z,100508.13
2023-02-22T11:32:16.113Z,100510.09
2023-02-22T11:35:03.561Z,100508.56
2023-02-22T11:37:42.718Z,100508.84
2023-02-22T11:40:19.986Z,100493.97
2023-02-22T11:43:12.373Z,100499.84
2023-02-22T11:46:10.899Z,100488.31
2023-02-22T11:48:57.675Z,100490.00
2023-02-22T11:51:45.167Z,100494.25
2023-02-22T11:54:34.957Z,100490.03
2023-02-22T11:57:22.347Z,100495.16
2023-02-22T12:00:12.280Z,100494.53
2023-02-22T12:03:12.893Z,100489.00
2023-02-22T12:06:15.011Z,100479.28
2023-02-22T12:09:01.902Z,100482.22
2023-02-22T12:11:45.847Z,100478.28
2023-02-22T12:14:27.352Z,100466.16
2023-02-22T12:17:20.597Z,100466.91
2023-02-22T12:20:01.921Z,100463.03
2023-02-22T12:22:46.152Z,100465.22
2023-02-22T12:25:24.286Z,100466.47
2023-02-22T12:28:07.768Z,100461.31
2023-02-22T12:30:51.780Z,100460.44
2023-02-22T12:33:32.894Z,100457.22
2023-02-22T12:36:12.439Z,100448.44
2023-02-22T12:38:54.207Z,100444.91
2023-02-22T12:41:36.686Z,100449.78
2023-02-22T12:44:18.288Z,100443.47
2023-02-22T12:46:54.672Z,100445.22
2023-02-22T12:49:35.933Z,100435.03
2023-02-22T12:52:21.548Z,100436.94
2023-02-22T12:55:04.288Z,100429.87
2023-02-22T12:57:45.211Z,100430.66
2023-02-22T13:00:26.540Z,100431.22
2023-02-22T13:03:06.406Z,100427.00
2023-02-22T13:05:43.360Z,100432.66
2023-02-22T13:08:29.500Z,100430.84
2023-02-22T13:11:16.734Z,100426.22
2023-02-22T13:14:05.006Z,100428.66
2023-02-22T13:16:52.655Z,100433.91
2023-02-22T13:19:39.594Z,100430.09
2023-02-22T13:22:20.690Z,100430.37
2023-02-22T13:25:04.761Z,100432.97
2023-02-22T13:27:52.556Z,100434.31
2023-02-22T13:30:38.002Z,100435.38
2023-02-22T13:33:35.759Z,100433.84
2023-02-22T13:36:26.889Z,100435.12
2023-02-22T13:39:15.893Z,100431.69
2023-02-22T13:42:00.614Z,100430.78
2023-02-22T13:45:22.212Z,100431.38
2023-02-22T13:48:17.491Z,100422.69
2023-02-22T13:51:16.425Z,100419.25
2023-02-22T13:53:56.109Z,100425.16
2023-02-22T13:56:31.162Z,100425.94
2023-02-22T13:59:06.345Z,100421.62
2023-02-22T14:01:48.761Z,100418.69
2023-02-22T14:04:37.238Z,100418.38
2023-02-22T14:07:56.824Z,100417.41
2023-02-22T14:10:46.995Z,100418.59
2023-02-22T14:13:23.309Z,100404.13
2023-02-22T14:16:23.152Z,100409.66
2023-02-22T14:19:07.838Z,100401.78
2023-02-22T14:22:02.222Z,100411.00
2023-02-22T14:24:45.526Z,100404.84
2023-02-22T14:27:20.236Z,100404.44
2023-02-22T14:29:57.809Z,100408.84
2023-02-22T14:32:34.135Z,100410.44
2023-02-22T14:35:26.607Z,100404.75
2023-02-22T14:38:08.065Z,100403.31
2023-02-22T14:40:48.186Z,100398.28
2023-02-22T14:43:26.920Z,100396.37
2023-02-22T14:46:05.424Z,100396.66
2023-02-22T14:48:43.152Z,100395.09
2023-02-22T14:51:25.108Z,100402.91
2023-02-22T14:54:05.034Z,100398.53
2023-02-22T14:56:44.384Z,100398.22
2023-02-22T14:59:21.909Z,100392.59
2023-02-22T15:03:05.589Z,100393.31
2023-02-22T15:06:14.538Z,100393.31
2023-02-22T19:10:55.765Z,100393.63
2023-02-22T19:13:31.893Z,100393.63
2023-02-22T19:16:08.395Z,100394.88
2023-02-22T19:18:44.360Z,100391.25
2023-02-22T19:21:19.181Z,100397.47
2023-02-22T19:23:55.129Z,100397.81
2023-02-22T19:26:32.099Z,100400.47
2023-02-22T19:29:08.571Z,100406.72
2023-02-22T19:31:43.659Z,100407.75
2023-02-22T19:34:22.024Z,100411.34
2023-02-22T19:37:00.666Z,100416.69
2023-02-22T19:39:38.527Z,100405.47
2023-02-22T19:42:14.175Z,100415.63
2023-02-22T19:44:49.514Z,100414.56
2023-02-22T19:47:23.961Z,100414.00
2023-02-22T19:50:00.230Z,100414.69
2023-02-22T19:52:35.655Z,100411.81
2023-02-22T19:55:12.850Z,100415.78
2023-02-22T19:57:50.248Z,100415.16
2023-02-22T20:00:25.530Z,100416.37
2023-02-22T20:03:05.957Z,100420.34
2023-02-22T20:05:40.654Z,100425.19
2023-02-22T20:08:16.480Z,100422.94
2023-02-22T20:10:51.638Z,100415.16
2023-02-22T20:13:28.021Z,100425.25
2023-02-22T20:16:02.400Z,100418.12
2023-02-22T20:18:38.084Z,100420.63
2023-02-22T20:21:15.274Z,100423.91
2023-02-22T20:23:50.371Z,100424.16
2023-02-22T20:26:25.589Z,100419.38
2023-02-22T20:29:04.081Z,100422.44
2023-02-22T20:31:41.321Z,100428.41
2023-02-22T20:34:16.516Z,100424.69
2023-02-22T20:36:50.798Z,100422.19
2023-02-22T20:39:25.813Z,100425.12
2023-02-22T20:42:02.900Z,100427.34
2023-02-22T20:44:40.232Z,100418.91
2023-02-22T20:47:14.833Z,100422.28
2023-02-22T20:49:49.927Z,100422.38
2023-02-22T20:52:24.657Z,100434.75
2023-02-22T20:54:59.459Z,100431.25
2023-02-22T20:57:33.990Z,100429.06
2023-02-22T21:00:11.635Z,100420.41
2023-02-22T21:02:46.854Z,100433.13
2023-02-22T21:05:21.676Z,100423.13
2023-02-22T21:07:58.572Z,100432.66
2023-02-22T21:10:41.420Z,100426.53
2023-02-22T21:13:16.068Z,100434.31
2023-02-22T21:15:53.364Z,100439.56
2023-02-22T21:18:28.104Z,100432.66
2023-02-22T21:21:10.207Z,100436.72
2023-02-22T21:23:49.906Z,100428.94
2023-02-22T21:26:27.726Z,100431.25
2023-02-22T21:29:04.850Z,100430.03
2023-02-22T21:31:41.289Z,100438.75
2023-02-22T21:34:17.649Z,100441.16
2023-02-22T21:36:52.746Z,100426.16
2023-02-22T21:39:29.097Z,100422.44
2023-02-22T21:42:07.203Z,100416.97
2023-02-22T21:44:41.485Z,100425.91
2023-02-22T21:47:17.596Z,100432.66
2023-02-22T21:49:53.353Z,100439.41
2023-02-22T21:52:27.910Z,100440.16
2023-02-22T21:55:02.148Z,100438.47
2023-02-22T21:57:37.451Z,100442.53
2023-02-22T22:00:29.182Z,100438.44
2023-02-22T22:03:11.742Z,100445.22
2023-02-22T22:05:46.384Z,100440.59
2023-02-22T22:08:21.254Z,100447.91
2023-02-22T22:10:56.297Z,100447.81
2023-02-22T22:13:31.091Z,100446.66
2023-02-22T22:16:08.206Z,100449.91
2023-02-22T22:18:45.141Z,100440.78
2023-02-22T22:21:22.850Z,100441.97
2023-02-22T22:23:57.563Z,100443.00
2023-02-22T22:26:33.955Z,100443.97
2023-02-22T22:29:11.569Z,100436.19
2023-02-22T22:31:46.031Z,100443.25
2023-02-22T22:34:24.410Z,100448.00
2023-02-22T22:36:59.249Z,100442.88
2023-02-22T22:39:33.901Z,100449.94
2023-02-22T22:42:09.165Z,100460.00
2023-02-22T22:44:43.687Z,100447.56
2023-02-22T22:47:18.858Z,100444.72
2023-02-22T22:50:01.509Z,100452.31
2023-02-22T22:52:36.801Z,100452.31
2023-02-22T22:55:15.314Z,100448.81
2023-02-22T22:57:49.638Z,100456.56
2023-02-22T23:03:18.542Z,100456.69
2023-02-22T23:05:54.356Z,100456.69
2023-02-22T23:08:29.393Z,100458.59
2023-02-22T23:11:09.727Z,100460.41
2023-02-22T23:13:44.654Z,100454.84
2023-02-22T23:16:19.922Z,100456.41
2023-02-22T23:18:56.396Z,100454.37
2023-02-22T23:21:31.028Z,100457.03
2023-02-22T23:24:07.357Z,100461.38
2023-02-22T23:26:42.170Z,100460.37
2023-02-22T23:29:17.493Z,100457.31
2023-02-22T23:31:54.484Z,100456.03
2023-02-22T23:34:30.339Z,100450.66
2023-02-22T23:37:09.465Z,100452.16
2023-02-22T23:39:44.059Z,100452.66
2023-02-22T23:42:19.006Z,100447.72
2023-02-22T23:44:53.953Z,100449.66
2023-02-22T23:47:31.863Z,100453.19
2023-02-22T23:50:13.668Z,100446.66
2023-02-22T23:52:49.629Z,100455.78
2023-02-22T23:55:24.430Z,100453.72
2023-02-22T23:57:59.746Z,100451.50
